Time;durP1;ratioP1;P1;durP2;ratioP2;P2;SDS_P1;SDS_P2;PMS_P1;PMS_P2;Temp;Humidity;BMP_temperature;BMP_pressure;BME280_temperature;BME280_humidity;BME280_pressure;Samples;Min_cycle;Max_cycle;Signal;HPM_P1;HPM_P2
2023/03/17 00:01:34;;;;;;;5.90;4.03;;;;;;;;;;4981502;28;20129;-71
2023/03/17 00:04:00;;;;;;;6.20;3.80;;;;;;;;;;4981798;28;20161;-71
2023/03/17 00:06:30;;;;;;;5.03;4.18;;;;;;;;;;4982694;28;20049;-71
2023/03/17 00:08:56;;;;;;;8.70;4.15;;;;;;;;;;4982615;28;21020;-71
2023/03/17 00:11:22;;;;;;;5.15;3.92;;;;;;;;;;4982000;28;20038;-71
2023/03/17 00:13:47;;;;;;;8.15;4.32;;;;;;;;;;4981641;28;20409;-73
2023/03/17 00:16:23;;;;;;;6.18;3.90;;;;;;;;;;4982114;28;20154;-72
2023/03/17 00:18:49;;;;;;;6.70;4.30;;;;;;;;;;4981924;28;20058;-71
2023/03/17 00:21:41;;;;;;;5.22;4.00;;;;;;;;;;4981534;28;20046;-71
2023/03/17 00:24:11;;;;;;;5.55;4.20;;;;;;;;;;4978302;28;20050;-71
2023/03/17 00:26:36;;;;;;;5.47;4.25;;;;;;;;;;4981629;28;20068;-71
2023/03/17 00:29:02;;;;;;;10.43;4.55;;;;;;;;;;4982292;28;20409;-71
2023/03/17 00:31:28;;;;;;;5.38;3.90;;;;;;;;;;4981592;28;20161;-71
2023/03/17 00:33:55;;;;;;;6.28;4.45;;;;;;;;;;4980583;28;20047;-71
2023/03/17 00:36:23;;;;;;;6.53;3.70;;;;;;;;;;4981559;28;20057;-71
2023/03/17 00:38:49;;;;;;;6.60;4.10;;;;;;;;;;4981507;28;20058;-71
2023/03/17 00:41:15;;;;;;;7.93;4.05;;;;;;;;;;4981885;28;20116;-71
2023/03/17 00:43:40;;;;;;;5.30;4.30;;;;;;;;;;4980030;28;20048;-71
2023/03/17 00:46:13;;;;;;;6.97;4.35;;;;;;;;;;4959976;28;20077;-71
2023/03/17 00:48:40;;;;;;;8.52;4.10;;;;;;;;;;4963709;28;20399;-71
2023/03/17 00:51:06;;;;;;;8.18;4.13;;;;;;;;;;4963253;28;20042;-71
2023/03/17 00:53:32;;;;;;;8.25;4.00;;;;;;;;;;4980040;28;20105;-71
2023/03/17 00:55:58;;;;;;;8.90;4.20;;;;;;;;;;4979134;28;20038;-71
2023/03/17 00:58:30;;;;;;;7.05;4.63;;;;;;;;;;4981658;28;20046;-71
2023/03/17 01:00:56;;;;;;;9.10;4.60;;;;;;;;;;4960541;28;20049;-71
2023/03/17 01:03:22;;;;;;;4.18;3.55;;;;;;;;;;4981369;28;20046;-71
2023/03/17 01:05:50;;;;;;;5.72;4.10;;;;;;;;;;4960151;28;20046;-71
2023/03/17 01:08:16;;;;;;;7.57;4.18;;;;;;;;;;4964106;28;20386;-71
2023/03/17 01:10:43;;;;;;;5.38;3.67;;;;;;;;;;4962976;28;20050;-71
2023/03/17 01:13:12;;;;;;;7.45;3.97;;;;;;;;;;4981148;28;20046;-71
2023/03/17 01:15:45;;;;;;;5.05;4.00;;;;;;;;;;4961608;28;20054;-71
2023/03/17 01:18:13;;;;;;;5.73;4.10;;;;;;;;;;4942282;28;20420;-71
2023/03/17 01:20:39;;;;;;;5.75;3.47;;;;;;;;;;4979598;28;20089;-71
2023/03/17 01:23:05;;;;;;;5.05;4.13;;;;;;;;;;4980861;28;20052;-71
2023/03/17 01:25:31;;;;;;;5.35;3.45;;;;;;;;;;4962781;28;20912;-71
2023/03/17 01:27:58;;;;;;;3.42;3.05;;;;;;;;;;4979697;28;20046;-71
2023/03/17 01:30:26;;;;;;;7.05;3.83;;;;;;;;;;4979523;28;20493;-71
2023/03/17 01:32:52;;;;;;;8.27;3.95;;;;;;;;;;4958312;28;20062;-71
2023/03/17 01:35:18;;;;;;;5.53;3.78;;;;;;;;;;4978439;28;20046;-71
2023/03/17 01:37:45;;;;;;;5.18;3.78;;;;;;;;;;4978310;28;20559;-71
2023/03/17 01:40:16;;;;;;;8.70;4.80;;;;;;;;;;4979276;28;20145;-70
2023/03/17 01:42:46;;;;;;;5.47;3.42;;;;;;;;;;4979954;28;20505;-71
2023/03/17 01:45:50;;;;;;;8.45;4.20;;;;;;;;;;4979203;28;20034;-72
2023/03/17 01:48:16;;;;;;;6.60;4.07;;;;;;;;;;4947099;28;20046;-70
2023/03/17 01:50:45;;;;;;;8.00;4.57;;;;;;;;;;4963238;28;20100;-71
2023/03/17 01:53:12;;;;;;;4.38;3.92;;;;;;;;;;4979814;28;20559;-72
2023/03/17 01:55:38;;;;;;;8.95;4.13;;;;;;;;;;4980553;28;20158;-69
2023/03/17 01:58:05;;;;;;;4.43;3.35;;;;;;;;;;4962272;28;20501;-70
2023/03/17 02:00:32;;;;;;;7.13;4.10;;;;;;;;;;4962871;28;20043;-69
2023/03/17 02:02:57;;;;;;;4.57;3.80;;;;;;;;;;4980690;28;20531;-70
2023/03/17 02:05:26;;;;;;;6.70;4.20;;;;;;;;;;4961328;28;20129;-71
2023/03/17 02:07:54;;;;;;;6.30;4.50;;;;;;;;;;4986158;28;20104;-71
2023/03/17 02:10:26;;;;;;;7.38;4.78;;;;;;;;;;4969196;28;20607;-72
2023/03/17 02:13:02;;;;;;;6.57;4.25;;;;;;;;;;4969131;28;20061;-71
2023/03/17 02:15:36;;;;;;;5.75;4.13;;;;;;;;;;4964479;28;20034;-71
2023/03/17 02:18:02;;;;;;;6.93;4.47;;;;;;;;;;4960910;28;20081;-71
2023/03/17 02:20:27;;;;;;;5.82;3.15;;;;;;;;;;4987307;28;20042;-71
2023/03/17 02:22:54;;;;;;;4.07;3.60;;;;;;;;;;4985624;28;20058;-71
2023/03/17 02:25:23;;;;;;;5.43;3.78;;;;;;;;;;4986365;28;20069;-71
2023/03/17 02:27:53;;;;;;;6.40;3.90;;;;;;;;;;4986249;28;20054;-70
2023/03/17 02:30:20;;;;;;;7.25;3.75;;;;;;;;;;4985757;28;20041;-71
2023/03/17 02:32:46;;;;;;;4.78;3.22;;;;;;;;;;4969071;28;20051;-70
2023/03/17 02:35:14;;;;;;;4.72;3.63;;;;;;;;;;4986460;28;20145;-72
2023/03/17 02:37:42;;;;;;;4.72;3.90;;;;;;;;;;4982138;28;20034;-73
2023/03/17 02:40:10;;;;;;;6.63;3.83;;;;;;;;;;4986310;28;20045;-71
2023/03/17 02:42:38;;;;;;;4.72;3.58;;;;;;;;;;4985919;28;20398;-71
2023/03/17 02:45:05;;;;;;;4.47;3.58;;;;;;;;;;4986527;28;20054;-70
2023/03/17 02:47:31;;;;;;;4.53;4.03;;;;;;;;;;4986204;28;20078;-71
2023/03/17 02:49:57;;;;;;;5.00;3.80;;;;;;;;;;4968092;28;20035;-71
2023/03/17 02:52:22;;;;;;;7.03;4.40;;;;;;;;;;4986854;28;20058;-71
2023/03/17 02:54:48;;;;;;;5.63;4.60;;;;;;;;;;4986431;28;20489;-72
2023/03/17 02:57:14;;;;;;;5.53;4.30;;;;;;;;;;4986769;28;20234;-71
2023/03/17 02:59:40;;;;;;;9.00;4.72;;;;;;;;;;4986065;28;20065;-71
2023/03/17 03:02:05;;;;;;;6.15;4.18;;;;;;;;;;4985899;28;20864;-72
2023/03/17 03:04:31;;;;;;;5.32;4.20;;;;;;;;;;4986754;28;20054;-71
2023/03/17 03:06:56;;;;;;;5.20;3.83;;;;;;;;;;4986548;28;20104;-70
2023/03/17 03:09:23;;;;;;;4.55;3.80;;;;;;;;;;4985983;28;20042;-70
2023/03/17 03:11:49;;;;;;;7.28;4.35;;;;;;;;;;4985673;28;20081;-70
2023/03/17 03:14:14;;;;;;;5.43;3.72;;;;;;;;;;4986594;28;20092;-70
2023/03/17 03:16:40;;;;;;;4.32;3.55;;;;;;;;;;4984389;28;20497;-70
2023/03/17 03:19:06;;;;;;;6.60;4.22;;;;;;;;;;4983705;28;20078;-70
2023/03/17 03:21:32;;;;;;;6.43;4.03;;;;;;;;;;4981495;28;20827;-70
2023/03/17 03:23:57;;;;;;;5.10;4.03;;;;;;;;;;4982619;28;20141;-69
2023/03/17 03:26:23;;;;;;;7.43;4.30;;;;;;;;;;4983367;28;20045;-69
2023/03/17 03:28:48;;;;;;;5.28;4.20;;;;;;;;;;4983295;28;20046;-69
2023/03/17 03:31:14;;;;;;;6.93;4.68;;;;;;;;;;4982251;28;20206;-70
2023/03/17 03:33:40;;;;;;;5.95;3.75;;;;;;;;;;4982302;28;21005;-75
2023/03/17 03:36:07;;;;;;;10.15;5.05;;;;;;;;;;4982781;28;20050;-70
2023/03/17 03:38:33;;;;;;;4.75;4.03;;;;;;;;;;4983030;28;20070;-70
2023/03/17 03:40:58;;;;;;;5.93;3.65;;;;;;;;;;4965482;28;20110;-69
2023/03/17 03:43:24;;;;;;;6.10;4.10;;;;;;;;;;4982309;28;20046;-70
2023/03/17 03:45:50;;;;;;;7.32;3.88;;;;;;;;;;4981547;28;21091;-70
2023/03/17 03:48:16;;;;;;;9.35;4.93;;;;;;;;;;4983313;28;20049;-70
2023/03/17 03:50:41;;;;;;;4.78;3.67;;;;;;;;;;4982808;28;20046;-70
2023/03/17 03:53:07;;;;;;;9.60;4.03;;;;;;;;;;4982438;28;20061;-70
2023/03/17 03:55:32;;;;;;;7.78;3.90;;;;;;;;;;4982402;28;20129;-70
2023/03/17 03:57:58;;;;;;;6.45;4.00;;;;;;;;;;4982083;28;20042;-70
2023/03/17 04:00:23;;;;;;;5.45;3.83;;;;;;;;;;4982481;28;20093;-70
2023/03/17 04:02:49;;;;;;;8.32;4.30;;;;;;;;;;4982700;28;20145;-70
2023/03/17 04:05:17;;;;;;;4.57;3.90;;;;;;;;;;4981749;28;20424;-70
2023/03/17 04:07:43;;;;;;;5.68;3.97;;;;;;;;;;4981622;28;20416;-70
2023/03/17 04:10:13;;;;;;;3.85;3.53;;;;;;;;;;4982840;28;20497;-71
2023/03/17 04:12:38;;;;;;;5.53;3.45;;;;;;;;;;4982381;28;20108;-71
2023/03/17 04:15:06;;;;;;;7.13;3.75;;;;;;;;;;4981789;28;20042;-70
2023/03/17 04:17:32;;;;;;;4.90;3.95;;;;;;;;;;4981811;28;20061;-70
2023/03/17 04:19:57;;;;;;;8.38;3.67;;;;;;;;;;4981510;28;20772;-70
2023/03/17 04:22:23;;;;;;;7.07;3.83;;;;;;;;;;4964950;28;20413;-70
2023/03/17 04:24:48;;;;;;;4.57;3.65;;;;;;;;;;4981932;28;20054;-70
2023/03/17 04:27:14;;;;;;;4.47;3.53;;;;;;;;;;4981172;28;20050;-70
2023/03/17 04:29:41;;;;;;;5.90;3.83;;;;;;;;;;4981761;28;20046;-70
2023/03/17 04:32:07;;;;;;;5.53;3.83;;;;;;;;;;4981476;28;20113;-69
2023/03/17 04:34:33;;;;;;;6.75;3.97;;;;;;;;;;4981893;28;20050;-70
2023/03/17 04:36:58;;;;;;;6.05;4.15;;;;;;;;;;4981330;28;20050;-69
2023/03/17 04:39:24;;;;;;;7.70;4.07;;;;;;;;;;4980564;28;20101;-70
2023/03/17 04:41:49;;;;;;;4.68;3.65;;;;;;;;;;4979351;28;20145;-69
2023/03/17 04:44:15;;;;;;;6.00;4.22;;;;;;;;;;4981848;28;20053;-69
2023/03/17 04:46:41;;;;;;;6.13;3.42;;;;;;;;;;4981237;28;20054;-69
2023/03/17 04:49:07;;;;;;;24.20;10.98;;;;;;;;;;4980763;28;20057;-69
2023/03/17 04:51:34;;;;;;;6.43;4.80;;;;;;;;;;4980609;28;20042;-69
2023/03/17 04:54:00;;;;;;;6.65;4.47;;;;;;;;;;4954997;28;20229;-69
2023/03/17 04:56:25;;;;;;;7.82;5.75;;;;;;;;;;4981640;28;20081;-69
2023/03/17 04:58:51;;;;;;;10.27;7.75;;;;;;;;;;4981347;28;20085;-70
2023/03/17 05:01:17;;;;;;;33.50;19.95;;;;;;;;;;4980708;28;20135;-71
2023/03/17 05:03:44;;;;;;;20.92;14.15;;;;;;;;;;4980774;28;20149;-70
2023/03/17 05:06:10;;;;;;;15.82;10.70;;;;;;;;;;4981065;28;20050;-70
2023/03/17 05:08:35;;;;;;;7.65;6.20;;;;;;;;;;4980260;28;20157;-70
2023/03/17 05:11:01;;;;;;;5.65;4.32;;;;;;;;;;4977311;28;20335;-70
2023/03/17 05:13:26;;;;;;;6.28;4.05;;;;;;;;;;4978469;28;20592;-70
2023/03/17 05:15:54;;;;;;;6.82;4.15;;;;;;;;;;4977347;28;20054;-70
2023/03/17 05:18:23;;;;;;;4.50;3.80;;;;;;;;;;4978180;28;20425;-69
2023/03/17 05:20:48;;;;;;;5.65;4.10;;;;;;;;;;4978183;28;20061;-70
2023/03/17 05:23:14;;;;;;;5.40;3.47;;;;;;;;;;4978463;28;20046;-70
2023/03/17 05:25:40;;;;;;;7.60;3.50;;;;;;;;;;4978694;28;20089;-70
2023/03/17 05:28:06;;;;;;;3.85;3.05;;;;;;;;;;4979503;28;20109;-70
2023/03/17 05:30:32;;;;;;;5.97;3.78;;;;;;;;;;4979328;28;20046;-69
2023/03/17 05:32:58;;;;;;;4.35;3.50;;;;;;;;;;4979131;28;20046;-70
2023/03/17 05:35:24;;;;;;;3.85;3.20;;;;;;;;;;4979352;28;20500;-70
2023/03/17 05:37:49;;;;;;;5.30;3.63;;;;;;;;;;4978965;28;20053;-70
2023/03/17 05:40:15;;;;;;;4.60;3.45;;;;;;;;;;4979574;28;20046;-70
2023/03/17 05:42:41;;;;;;;6.75;4.00;;;;;;;;;;4980373;28;20054;-70
2023/03/17 05:45:07;;;;;;;6.85;3.95;;;;;;;;;;4979579;28;20038;-70
2023/03/17 05:47:33;;;;;;;5.90;3.65;;;;;;;;;;4976778;28;20055;-70
2023/03/17 05:49:59;;;;;;;6.03;3.65;;;;;;;;;;4955000;28;20061;-70
2023/03/17 05:52:26;;;;;;;4.95;3.88;;;;;;;;;;4979815;28;20046;-70
2023/03/17 05:54:52;;;;;;;5.90;3.67;;;;;;;;;;4978446;28;20182;-69
2023/03/17 05:57:18;;;;;;;4.57;3.40;;;;;;;;;;4978309;28;20424;-71
2023/03/17 05:59:43;;;;;;;4.20;3.47;;;;;;;;;;4984092;28;20050;-70
2023/03/17 06:02:10;;;;;;;8.75;3.83;;;;;;;;;;4988181;28;20054;-70
2023/03/17 06:04:36;;;;;;;7.55;3.63;;;;;;;;;;4986209;28;20050;-69
2023/03/17 06:07:01;;;;;;;5.40;3.72;;;;;;;;;;4989174;28;20165;-70
2023/03/17 06:09:27;;;;;;;3.95;3.03;;;;;;;;;;4989593;28;20523;-69
2023/03/17 06:11:52;;;;;;;6.65;3.65;;;;;;;;;;4978452;28;20050;-69
2023/03/17 06:14:18;;;;;;;5.05;3.58;;;;;;;;;;4977638;28;20050;-69
2023/03/17 06:16:44;;;;;;;4.75;3.75;;;;;;;;;;4976213;28;20105;-70
2023/03/17 06:19:09;;;;;;;5.53;3.55;;;;;;;;;;4976173;28;20054;-69
2023/03/17 06:21:35;;;;;;;6.57;4.03;;;;;;;;;;4977209;28;20045;-69
2023/03/17 06:24:01;;;;;;;5.63;3.42;;;;;;;;;;4976749;28;20421;-69
2023/03/17 06:26:26;;;;;;;7.93;3.60;;;;;;;;;;4978178;28;20158;-69
2023/03/17 06:28:52;;;;;;;3.40;2.90;;;;;;;;;;4978594;28;20468;-69
2023/03/17 06:31:17;;;;;;;4.10;3.20;;;;;;;;;;4980000;28;20046;-69
2023/03/17 06:33:43;;;;;;;2.63;2.42;;;;;;;;;;4976935;28;20062;-71
2023/03/17 06:36:08;;;;;;;4.55;2.92;;;;;;;;;;4948894;28;20050;-70
2023/03/17 06:38:34;;;;;;;6.18;3.05;;;;;;;;;;4952276;28;20121;-69
2023/03/17 06:40:59;;;;;;;3.72;3.05;;;;;;;;;;4980094;28;20097;-69
2023/03/17 06:43:25;;;;;;;3.63;3.08;;;;;;;;;;4979864;28;20536;-69
2023/03/17 06:45:51;;;;;;;8.57;3.20;;;;;;;;;;4979013;28;20050;-69
2023/03/17 06:48:17;;;;;;;5.63;2.70;;;;;;;;;;4979143;28;20050;-69
2023/03/17 06:50:46;;;;;;;7.40;3.58;;;;;;;;;;4978309;28;20058;-69
2023/03/17 06:53:11;;;;;;;4.57;3.22;;;;;;;;;;4980979;28;20046;-69
2023/03/17 06:55:37;;;;;;;3.90;2.85;;;;;;;;;;4981543;28;20057;-70
2023/03/17 06:58:02;;;;;;;3.67;2.90;;;;;;;;;;4981410;28;20066;-69
2023/03/17 07:00:29;;;;;;;5.72;3.45;;;;;;;;;;4981855;28;20189;-69
2023/03/17 07:02:55;;;;;;;7.38;3.55;;;;;;;;;;4982713;28;21173;-69
2023/03/17 07:05:20;;;;;;;4.88;3.50;;;;;;;;;;4980811;28;20046;-70
2023/03/17 07:07:46;;;;;;;4.18;3.10;;;;;;;;;;4982982;28;20962;-70
2023/03/17 07:10:14;;;;;;;5.47;3.28;;;;;;;;;;4983614;28;20050;-70
2023/03/17 07:12:40;;;;;;;4.75;3.00;;;;;;;;;;4982731;28;20050;-70
2023/03/17 07:15:06;;;;;;;2.95;2.53;;;;;;;;;;4983060;28;21047;-70
2023/03/17 07:17:31;;;;;;;4.53;3.10;;;;;;;;;;4983273;28;20097;-70
2023/03/17 07:19:57;;;;;;;3.38;2.70;;;;;;;;;;4982514;28;20162;-70
2023/03/17 07:22:22;;;;;;;4.63;2.78;;;;;;;;;;4981605;28;20046;-70
2023/03/17 07:24:47;;;;;;;5.18;2.55;;;;;;;;;;4982464;28;20042;-69
2023/03/17 07:27:15;;;;;;;3.50;2.65;;;;;;;;;;4983172;28;20706;-69
2023/03/17 07:29:40;;;;;;;5.07;3.10;;;;;;;;;;4983223;28;20034;-70
2023/03/17 07:32:07;;;;;;;3.08;2.60;;;;;;;;;;4982409;28;20134;-70
2023/03/17 07:34:33;;;;;;;6.05;3.22;;;;;;;;;;4982273;28;20082;-69
2023/03/17 07:36:59;;;;;;;8.93;4.03;;;;;;;;;;4982429;28;20120;-70
2023/03/17 07:39:24;;;;;;;3.95;3.00;;;;;;;;;;4965447;28;20038;-70
2023/03/17 07:41:54;;;;;;;5.20;2.78;;;;;;;;;;4982408;28;20569;-71
2023/03/17 07:44:23;;;;;;;5.00;3.00;;;;;;;;;;4982158;28;20133;-70
2023/03/17 07:46:50;;;;;;;7.85;3.00;;;;;;;;;;4982604;28;20089;-71
2023/03/17 07:49:17;;;;;;;3.78;2.90;;;;;;;;;;4965469;28;20444;-70
2023/03/17 07:51:44;;;;;;;5.70;2.75;;;;;;;;;;4982000;28;20509;-74
2023/03/17 07:54:11;;;;;;;3.78;2.72;;;;;;;;;;4982923;28;20050;-71
2023/03/17 07:56:37;;;;;;;2.50;2.30;;;;;;;;;;4981941;28;20599;-69
2023/03/17 07:59:03;;;;;;;6.50;2.83;;;;;;;;;;4982282;28;20081;-69
2023/03/17 08:01:29;;;;;;;3.55;2.45;;;;;;;;;;4982839;28;20077;-70
2023/03/17 08:03:55;;;;;;;2.55;2.22;;;;;;;;;;4981119;28;20089;-69
2023/03/17 08:06:21;;;;;;;3.30;1.95;;;;;;;;;;4963715;28;20508;-69
2023/03/17 08:08:46;;;;;;;3.83;2.20;;;;;;;;;;4981577;28;20081;-69
2023/03/17 08:11:12;;;;;;;2.85;1.65;;;;;;;;;;4982346;28;20058;-68
2023/03/17 08:13:37;;;;;;;3.65;1.92;;;;;;;;;;4982390;28;20043;-69
2023/03/17 08:16:03;;;;;;;1.75;1.40;;;;;;;;;;4981249;28;20069;-69
2023/03/17 08:18:29;;;;;;;1.95;1.50;;;;;;;;;;4981838;28;20046;-68
2023/03/17 08:20:54;;;;;;;5.55;1.60;;;;;;;;;;4981769;28;20050;-69
2023/03/17 08:23:20;;;;;;;1.70;1.60;;;;;;;;;;4982324;28;20038;-68
2023/03/17 08:25:46;;;;;;;2.80;1.85;;;;;;;;;;4981470;28;20050;-69
2023/03/17 08:28:14;;;;;;;1.50;1.40;;;;;;;;;;4981743;28;20660;-69
2023/03/17 08:30:43;;;;;;;3.53;1.60;;;;;;;;;;4981486;28;20088;-71
2023/03/17 08:33:09;;;;;;;4.35;1.42;;;;;;;;;;4980158;28;20054;-69
2023/03/17 08:35:36;;;;;;;3.85;1.60;;;;;;;;;;4981915;28;20073;-69
2023/03/17 08:38:02;;;;;;;1.95;1.63;;;;;;;;;;4981095;28;20050;-69
2023/03/17 08:40:27;;;;;;;1.73;1.58;;;;;;;;;;4981286;28;20042;-69
2023/03/17 08:42:53;;;;;;;2.13;1.77;;;;;;;;;;4981561;28;20551;-69
2023/03/17 08:45:18;;;;;;;3.17;1.60;;;;;;;;;;4981158;28;20125;-69
2023/03/17 08:47:45;;;;;;;2.05;1.70;;;;;;;;;;4981164;28;20054;-69
2023/03/17 08:50:17;;;;;;;3.80;1.60;;;;;;;;;;4981211;28;20681;-67
2023/03/17 08:52:43;;;;;;;3.53;2.60;;;;;;;;;;4981197;28;20065;-70
2023/03/17 08:55:09;;;;;;;1.63;1.52;;;;;;;;;;4981534;28;20061;-69
2023/03/17 08:57:35;;;;;;;2.50;1.95;;;;;;;;;;4981759;28;20042;-69
2023/03/17 09:00:01;;;;;;;2.45;1.80;;;;;;;;;;4980765;28;20069;-70
2023/03/17 09:02:27;;;;;;;3.38;2.20;;;;;;;;;;4980189;28;20136;-69
2023/03/17 09:04:53;;;;;;;4.32;2.15;;;;;;;;;;4980430;28;20497;-69
2023/03/17 09:07:19;;;;;;;4.18;2.17;;;;;;;;;;4981042;28;20057;-69
2023/03/17 09:09:45;;;;;;;2.63;1.98;;;;;;;;;;4980868;28;20054;-70
2023/03/17 09:12:10;;;;;;;4.45;2.17;;;;;;;;;;4980640;28;20053;-71
2023/03/17 09:14:36;;;;;;;2.13;1.92;;;;;;;;;;4979824;28;20034;-69
2023/03/17 09:17:01;;;;;;;3.90;2.03;;;;;;;;;;4980883;28;21619;-70
2023/03/17 09:19:27;;;;;;;5.03;2.40;;;;;;;;;;4963886;28;20045;-71
2023/03/17 09:21:52;;;;;;;4.65;2.10;;;;;;;;;;4980478;28;20179;-69
2023/03/17 09:24:19;;;;;;;4.15;2.00;;;;;;;;;;4980014;28;20527;-70
2023/03/17 09:26:44;;;;;;;2.25;2.03;;;;;;;;;;4980593;28;20072;-70
2023/03/17 09:29:10;;;;;;;2.35;2.15;;;;;;;;;;4980572;28;20159;-69
2023/03/17 09:31:36;;;;;;;2.53;2.22;;;;;;;;;;4979807;28;20057;-68
2023/03/17 09:34:05;;;;;;;5.45;2.15;;;;;;;;;;4979352;28;20074;-69
2023/03/17 09:36:32;;;;;;;4.65;1.95;;;;;;;;;;4979982;28;20113;-69
2023/03/17 09:38:58;;;;;;;3.13;1.80;;;;;;;;;;4981085;28;20057;-70
2023/03/17 09:41:56;;;;;;;3.67;1.95;;;;;;;;;;4980951;28;20501;-70
2023/03/17 09:44:41;;;;;;;2.67;1.90;;;;;;;;;;4931876;28;20057;-70
2023/03/17 09:47:32;;;;;;;5.30;1.92;;;;;;;;;;4979406;28;20615;-70
2023/03/17 09:50:00;;;;;;;3.20;1.90;;;;;;;;;;4979796;28;20490;-70
2023/03/17 09:52:28;;;;;;;3.03;1.67;;;;;;;;;;4980508;28;20108;-71
2023/03/17 09:54:54;;;;;;;2.10;1.95;;;;;;;;;;4980404;28;20058;-70
2023/03/17 09:57:33;;;;;;;1.90;1.77;;;;;;;;;;4979118;28;20121;-70
2023/03/17 10:00:10;;;;;;;5.28;1.85;;;;;;;;;;4979836;28;20046;-72
2023/03/17 10:02:36;;;;;;;1.88;1.77;;;;;;;;;;4980319;28;20556;-72
2023/03/17 10:05:19;;;;;;;2.50;2.10;;;;;;;;;;4980667;28;20054;-72
2023/03/17 10:08:20;;;;;;;2.08;1.80;;;;;;;;;;4979031;28;20054;-73
2023/03/17 10:11:22;;;;;;;2.25;2.00;;;;;;;;;;4948755;28;20528;-70
2023/03/17 10:14:02;;;;;;;1.83;1.73;;;;;;;;;;4979737;28;20109;-70
2023/03/17 10:16:40;;;;;;;3.53;1.80;;;;;;;;;;4980347;28;20057;-70
2023/03/17 10:19:25;;;;;;;3.00;1.95;;;;;;;;;;4980066;28;20045;-71
2023/03/17 10:21:57;;;;;;;2.90;2.00;;;;;;;;;;4979650;28;20046;-70
2023/03/17 10:24:24;;;;;;;;;;;;;;;;;;4980796;28;20101;-71
2023/03/17 10:26:52;;;;;;;2.60;1.73;;;;;;;;;;4982393;28;20137;-71
2023/03/17 10:29:22;;;;;;;3.35;1.60;;;;;;;;;;4983074;28;20849;-71
2023/03/17 10:31:50;;;;;;;4.35;1.90;;;;;;;;;;4983470;28;20137;-71
2023/03/17 10:34:18;;;;;;;4.78;1.70;;;;;;;;;;4984330;28;20409;-71
2023/03/17 10:36:52;;;;;;;3.08;2.00;;;;;;;;;;4984249;28;20062;-71
2023/03/17 10:39:20;;;;;;;1.70;1.60;;;;;;;;;;4984203;28;20053;-71
2023/03/17 10:41:59;;;;;;;4.05;1.95;;;;;;;;;;4982586;28;20169;-71
2023/03/17 10:44:53;;;;;;;2.80;1.77;;;;;;;;;;4983581;28;20046;-70
2023/03/17 10:47:30;;;;;;;3.38;1.70;;;;;;;;;;4983671;28;20047;-71
2023/03/17 10:49:59;;;;;;;1.88;1.50;;;;;;;;;;4983559;28;20132;-71
2023/03/17 10:52:30;;;;;;;6.88;1.70;;;;;;;;;;4962558;28;20129;-70
2023/03/17 10:55:00;;;;;;;2.30;2.10;;;;;;;;;;4983811;28;20050;-71
2023/03/17 10:57:27;;;;;;;3.35;2.00;;;;;;;;;;4984153;28;20128;-71
2023/03/17 10:59:54;;;;;;;3.15;1.80;;;;;;;;;;4982883;28;20054;-70
2023/03/17 11:02:25;;;;;;;2.95;1.67;;;;;;;;;;4982324;28;20576;-70
2023/03/17 11:04:58;;;;;;;2.75;1.85;;;;;;;;;;4983062;28;20058;-72
2023/03/17 11:07:37;;;;;;;3.53;1.65;;;;;;;;;;4984001;28;20045;-71
2023/03/17 11:10:14;;;;;;;2.33;2.03;;;;;;;;;;4982740;28;20141;-70
2023/03/17 11:12:41;;;;;;;3.35;1.80;;;;;;;;;;4983661;28;20073;-72
2023/03/17 11:15:13;;;;;;;2.58;1.70;;;;;;;;;;4964900;28;20387;-71
2023/03/17 11:17:49;;;;;;;2.40;1.70;;;;;;;;;;4982065;28;20042;-71
2023/03/17 11:20:34;;;;;;;4.03;1.80;;;;;;;;;;4957169;28;20133;-71
2023/03/17 11:23:12;;;;;;;5.03;1.50;;;;;;;;;;4983414;28;20077;-70
2023/03/17 11:25:41;;;;;;;3.05;2.10;;;;;;;;;;4982591;28;20049;-70
2023/03/17 11:28:15;;;;;;;2.45;1.52;;;;;;;;;;4982500;28;20046;-71
2023/03/17 11:30:46;;;;;;;2.25;1.60;;;;;;;;;;4983028;28;20086;-71
2023/03/17 11:33:32;;;;;;;1.80;1.65;;;;;;;;;;4983422;28;20042;-71
2023/03/17 11:36:20;;;;;;;2.83;1.55;;;;;;;;;;4981531;28;20682;-71
2023/03/17 11:39:10;;;;;;;3.03;1.30;;;;;;;;;;4982073;28;20046;-74
2023/03/17 11:42:02;;;;;;;2.55;1.42;;;;;;;;;;4983230;28;20038;-71
2023/03/17 11:44:42;;;;;;;1.60;1.50;;;;;;;;;;4969604;28;20536;-70
2023/03/17 11:47:27;;;;;;;2.15;1.92;;;;;;;;;;4981916;28;20046;-70
2023/03/17 11:50:21;;;;;;;1.63;1.52;;;;;;;;;;4982589;28;20058;-73
2023/03/17 11:53:06;;;;;;;3.13;1.65;;;;;;;;;;4959565;28;20054;-73
2023/03/17 11:55:37;;;;;;;2.90;1.60;;;;;;;;;;4982453;28;20050;-72
2023/03/17 11:58:14;;;;;;;4.93;1.50;;;;;;;;;;4981568;28;20386;-71
2023/03/17 12:00:53;;;;;;;2.90;1.67;;;;;;;;;;4982682;28;20057;-70
2023/03/17 12:03:42;;;;;;;1.73;1.58;;;;;;;;;;4982253;28;20049;-71
2023/03/17 12:06:19;;;;;;;1.98;1.60;;;;;;;;;;4981679;28;20545;-72
2023/03/17 12:08:52;;;;;;;2.00;1.80;;;;;;;;;;4981916;28;20097;-70
2023/03/17 12:11:27;;;;;;;3.53;2.00;;;;;;;;;;4982884;28;20100;-71
2023/03/17 12:14:25;;;;;;;4.85;1.70;;;;;;;;;;4981468;28;20361;-71
2023/03/17 12:17:08;;;;;;;1.73;1.63;;;;;;;;;;4980900;28;20120;-71
2023/03/17 12:19:41;;;;;;;2.13;1.77;;;;;;;;;;4982112;28;20097;-71
2023/03/17 12:22:28;;;;;;;1.75;1.65;;;;;;;;;;4975891;28;20065;-70
2023/03/17 12:25:11;;;;;;;2.47;2.28;;;;;;;;;;4979398;28;20050;-73
2023/03/17 12:27:47;;;;;;;3.65;2.10;;;;;;;;;;4979935;28;20046;-71
2023/03/17 12:30:44;;;;;;;5.15;1.95;;;;;;;;;;4977981;28;20504;-70
2023/03/17 12:33:18;;;;;;;2.88;2.25;;;;;;;;;;4977754;28;20050;-70
2023/03/17 12:35:44;;;;;;;2.40;2.00;;;;;;;;;;4977616;28;20157;-70
2023/03/17 12:38:23;;;;;;;4.22;2.33;;;;;;;;;;4971828;28;20136;-71
2023/03/17 12:41:09;;;;;;;2.30;2.10;;;;;;;;;;4977408;28;20144;-71
2023/03/17 12:43:45;;;;;;;3.40;2.10;;;;;;;;;;4978593;28;20141;-71
2023/03/17 12:46:40;;;;;;;3.05;2.45;;;;;;;;;;4977688;28;20482;-71
2023/03/17 12:49:43;;;;;;;3.38;2.50;;;;;;;;;;4970878;28;20134;-71
2023/03/17 12:52:52;;;;;;;2.13;1.92;;;;;;;;;;4977823;28;20054;-72
2023/03/17 12:55:23;;;;;;;2.97;2.15;;;;;;;;;;4978588;28;20043;-71
2023/03/17 12:58:02;;;;;;;3.60;2.05;;;;;;;;;;4977757;28;20078;-72
2023/03/17 13:00:31;;;;;;;3.47;1.90;;;;;;;;;;4979813;28;20054;-71
2023/03/17 13:03:29;;;;;;;2.20;2.00;;;;;;;;;;4980499;28;20046;-71
2023/03/17 13:06:00;;;;;;;4.07;2.78;;;;;;;;;;4966165;28;20070;-71
2023/03/17 13:08:35;;;;;;;3.55;2.58;;;;;;;;;;4978788;28;20089;-72
2023/03/17 13:11:26;;;;;;;3.63;2.67;;;;;;;;;;4978391;28;20053;-71
2023/03/17 13:13:54;;;;;;;3.10;2.85;;;;;;;;;;4979458;28;20050;-71
2023/03/17 13:16:32;;;;;;;3.60;2.72;;;;;;;;;;4978628;28;20053;-71
2023/03/17 13:19:17;;;;;;;3.88;2.30;;;;;;;;;;4979428;28;20046;-70
2023/03/17 13:22:03;;;;;;;2.78;1.98;;;;;;;;;;4980341;28;20069;-71
2023/03/17 13:24:46;;;;;;;2.30;2.10;;;;;;;;;;4944333;28;20113;-71
2023/03/17 13:27:32;;;;;;;9.52;2.38;;;;;;;;;;4979847;28;20050;-71
2023/03/17 13:30:20;;;;;;;4.38;2.10;;;;;;;;;;4979497;28;20057;-70
2023/03/17 13:33:18;;;;;;;2.75;2.20;;;;;;;;;;4980111;28;20088;-72
2023/03/17 13:35:43;;;;;;;5.38;1.85;;;;;;;;;;4978676;28;20054;-72
2023/03/17 13:38:30;;;;;;;3.88;2.40;;;;;;;;;;4978154;28;20563;-71
2023/03/17 13:41:21;;;;;;;3.55;2.78;;;;;;;;;;4980351;28;20042;-71
2023/03/17 13:44:23;;;;;;;4.25;2.30;;;;;;;;;;4979899;28;20077;-70
2023/03/17 13:46:48;;;;;;;2.38;2.15;;;;;;;;;;4980566;28;20050;-70
2023/03/17 13:49:18;;;;;;;5.28;2.08;;;;;;;;;;4979753;28;20046;-72
2023/03/17 13:51:51;;;;;;;5.45;2.20;;;;;;;;;;4980014;28;20066;-71
2023/03/17 13:54:33;;;;;;;3.67;2.10;;;;;;;;;;4955072;28;20081;-70
2023/03/17 13:57:17;;;;;;;;;;;;;;;;;;4980641;28;20457;-70
2023/03/17 13:59:49;;;;;;;5.22;2.17;;;;;;;;;;4978299;28;19981;-70
2023/03/17 14:02:18;;;;;;;2.65;2.08;;;;;;;;;;4962112;28;20523;-71
2023/03/17 14:05:05;;;;;;;4.85;2.13;;;;;;;;;;4980297;28;20177;-70
2023/03/17 14:07:46;;;;;;;2.08;1.83;;;;;;;;;;4980107;28;20500;-71
2023/03/17 14:10:18;;;;;;;5.38;2.10;;;;;;;;;;4979710;28;20050;-71
2023/03/17 14:12:53;;;;;;;4.00;2.00;;;;;;;;;;4980040;28;20046;-71
2023/03/17 14:15:40;;;;;;;1.88;1.70;;;;;;;;;;4978526;28;20042;-70
2023/03/17 14:18:15;;;;;;;6.82;2.13;;;;;;;;;;4979419;28;20080;-72
2023/03/17 14:20:52;;;;;;;3.03;2.00;;;;;;;;;;4978320;28;20043;-71
2023/03/17 14:23:17;;;;;;;2.20;2.00;;;;;;;;;;4979543;28;20137;-72
2023/03/17 14:25:43;;;;;;;3.05;1.92;;;;;;;;;;4979839;28;20420;-73
2023/03/17 14:28:15;;;;;;;4.60;1.90;;;;;;;;;;4954511;28;20054;-72
2023/03/17 14:30:50;;;;;;;3.45;2.30;;;;;;;;;;4980057;28;20066;-71
2023/03/17 14:33:26;;;;;;;2.60;2.25;;;;;;;;;;4978724;28;20058;-71
2023/03/17 14:35:56;;;;;;;3.88;2.20;;;;;;;;;;4978706;28;20527;-71
2023/03/17 14:38:24;;;;;;;2.97;2.35;;;;;;;;;;4980257;28;20053;-72
2023/03/17 14:40:58;;;;;;;5.70;2.00;;;;;;;;;;4980459;28;20050;-71
2023/03/17 14:43:24;;;;;;;3.58;2.45;;;;;;;;;;4979115;28;20121;-71
2023/03/17 14:45:51;;;;;;;4.13;2.17;;;;;;;;;;4978981;28;20084;-70
2023/03/17 14:48:34;;;;;;;2.65;2.17;;;;;;;;;;4979837;28;20077;-71
2023/03/17 14:51:05;;;;;;;3.70;2.13;;;;;;;;;;4980459;28;20054;-70
2023/03/17 14:53:42;;;;;;;4.97;2.30;;;;;;;;;;4979052;28;20054;-72
2023/03/17 14:56:07;;;;;;;6.50;2.00;;;;;;;;;;4978848;28;20065;-71
2023/03/17 14:58:41;;;;;;;2.03;1.83;;;;;;;;;;4979803;28;20054;-72
2023/03/17 15:01:14;;;;;;;3.20;2.17;;;;;;;;;;4979282;28;20831;-73
2023/03/17 15:03:52;;;;;;;5.95;2.50;;;;;;;;;;4979982;28;20042;-73